createdAt,value
2023-04-26T00:00:24.603Z,99450.72
2023-04-26T00:01:27.506Z,99454.28
2023-04-26T00:02:29.854Z,99456.94
2023-04-26T00:03:32.996Z,99459.59
2023-04-26T00:04:35.756Z,99452.69
2023-04-26T00:05:38.752Z,99456.19
2023-04-26T00:06:41.522Z,99460.56
2023-04-26T00:07:44.386Z,99456.25
2023-04-26T00:08:46.544Z,99458.03
2023-04-26T00:09:48.832Z,99458.09
2023-04-26T00:10:51.002Z,99464.13
2023-04-26T00:11:53.196Z,99461.53
2023-04-26T00:12:55.392Z,99458.06
2023-04-26T00:13:58.757Z,99453.59
2023-04-26T00:15:00.973Z,99455.34
2023-04-26T00:16:03.717Z,99461.31
2023-04-26T00:17:06.187Z,99450.91
2023-04-26T00:18:08.463Z,99461.03
2023-04-26T00:19:11.855Z,99459.34
2023-04-26T00:20:14.112Z,99456.63
2023-04-26T00:21:16.525Z,99470.50
2023-04-26T00:22:18.728Z,99465.34
2023-04-26T00:23:21.011Z,99457.19
2023-04-26T00:24:23.556Z,99461.59
2023-04-26T00:25:25.821Z,99460.78
2023-04-26T00:26:28.109Z,99469.59
2023-04-26T00:27:30.332Z,99465.94
2023-04-26T00:28:32.514Z,99469.22
2023-04-26T00:29:35.300Z,99471.84
2023-04-26T00:30:41.083Z,99469.38
2023-04-26T00:31:44.903Z,99472.09
2023-04-26T00:32:47.891Z,99468.41
2023-04-26T00:33:51.226Z,99472.56
2023-04-26T00:34:53.468Z,99462.97
2023-04-26T00:35:56.108Z,99468.13
2023-04-26T00:36:58.344Z,99460.88
2023-04-26T00:38:00.869Z,99459.06
2023-04-26T00:39:03.266Z,99460.63
2023-04-26T00:40:06.382Z,99460.56
2023-04-26T00:41:08.553Z,99454.53
2023-04-26T00:42:10.743Z,99457.38
2023-04-26T00:43:13.067Z,99455.56
2023-04-26T00:44:15.708Z,99449.75
2023-04-26T00:45:17.864Z,99447.16
2023-04-26T00:46:20.989Z,99450.09
2023-04-26T00:47:25.840Z,99459.81
2023-04-26T00:48:28.660Z,99461.00
2023-04-26T00:49:31.056Z,99448.78
2023-04-26T00:50:34.021Z,99453.78
2023-04-26T00:51:37.545Z,99457.38
2023-04-26T00:52:39.747Z,99460.81
2023-04-26T00:53:42.753Z,99463.44
2023-04-26T00:54:45.263Z,99466.41
2023-04-26T00:55:47.666Z,99466.63
2023-04-26T00:56:52.957Z,99461.59
2023-04-26T00:57:55.318Z,99456.53
2023-04-26T00:58:57.601Z,99463.56
2023-04-26T00:59:59.826Z,99471.41
2023-04-26T01:01:02.985Z,99461.03
2023-04-26T01:02:05.599Z,99462.81
2023-04-26T01:03:08.220Z,99468.09
2023-04-26T01:04:12.996Z,99464.59
2023-04-26T01:05:15.329Z,99466.34
2023-04-26T01:06:19.859Z,99467.97
2023-04-26T01:07:22.252Z,99463.41
2023-04-26T01:08:24.441Z,99466.16
2023-04-26T01:09:26.688Z,99470.53
2023-04-26T01:10:29.210Z,99464.56
2023-04-26T01:11:34.631Z,99456.03
2023-04-26T01:12:38.140Z,99460.34
2023-04-26T01:13:42.008Z,99459.47
2023-04-26T01:14:45.118Z,99456.91
2023-04-26T01:15:48.384Z,99463.00
2023-04-26T01:16:52.141Z,99454.22
2023-04-26T01:17:54.700Z,99449.81
2023-04-26T01:18:57.803Z,99455.75
2023-04-26T01:19:59.979Z,99459.22
2023-04-26T01:21:04.638Z,99460.06
2023-04-26T01:22:06.795Z,99453.00
2023-04-26T01:23:10.007Z,99454.78
2023-04-26T01:24:13.830Z,99457.38
2023-04-26T01:25:16.272Z,99458.13
2023-04-26T01:26:18.776Z,99460.63
2023-04-26T01:27:22.571Z,99448.44
2023-04-26T01:28:24.804Z,99450.97
2023-04-26T01:29:27.293Z,99450.97
2023-04-26T01:30:29.537Z,99449.25
2023-04-26T01:31:31.750Z,99457.13
2023-04-26T01:32:34.925Z,99453.56
2023-04-26T01:33:37.189Z,99450.97
2023-04-26T01:34:39.404Z,99443.28
2023-04-26T01:35:42.088Z,99440.72
2023-04-26T01:36:44.239Z,99441.69
2023-04-26T01:37:46.409Z,99444.16
2023-04-26T01:38:48.595Z,99444.03
2023-04-26T01:39:50.858Z,99435.31
2023-04-26T01:40:55.486Z,99443.25
2023-04-26T01:41:58.682Z,99440.66
2023-04-26T01:43:03.131Z,99438.00
2023-04-26T01:44:05.356Z,99439.00
2023-04-26T01:45:07.793Z,99433.88
2023-04-26T01:46:28.693Z,99440.84
2023-04-26T01:47:30.927Z,99440.03
2023-04-26T01:48:33.177Z,99434.09
2023-04-26T01:49:37.301Z,99435.91
2023-04-26T01:50:39.609Z,99436.84
2023-04-26T01:51:41.946Z,99439.63
2023-04-26T01:52:44.264Z,99442.56
2023-04-26T01:53:47.278Z,99445.09
2023-04-26T01:54:49.493Z,99438.25
2023-04-26T01:55:51.711Z,99445.22
2023-04-26T01:56:54.017Z,99437.28
2023-04-26T01:57:56.314Z,99437.16
2023-04-26T01:58:59.140Z,99440.56
2023-04-26T02:02:11.484Z,99432.44
2023-04-26T02:03:13.966Z,99433.25
2023-04-26T02:04:16.235Z,99429.69
2023-04-26T02:05:18.532Z,99442.59
2023-04-26T02:06:21.654Z,99432.06
2023-04-26T02:07:23.822Z,99437.34
2023-04-26T02:08:31.684Z,99435.63
2023-04-26T02:09:33.932Z,99438.41
2023-04-26T02:10:37.535Z,99432.50
2023-04-26T02:11:39.703Z,99442.16
2023-04-26T02:12:41.932Z,99440.50
2023-04-26T02:13:44.129Z,99443.81
2023-04-26T02:14:46.340Z,99440.31
2023-04-26T02:15:49.881Z,99443.66
2023-04-26T02:16:52.191Z,99448.84
2023-04-26T02:17:55.618Z,99444.53
2023-04-26T02:18:59.281Z,99449.94
2023-04-26T02:20:01.543Z,99439.59
2023-04-26T02:21:08.410Z,99443.84
2023-04-26T02:22:10.609Z,99449.00
2023-04-26T02:23:16.717Z,99454.09
2023-04-26T02:24:19.079Z,99443.81
2023-04-26T02:25:21.450Z,99447.91
2023-04-26T02:26:23.732Z,99444.22
2023-04-26T02:27:26.119Z,99451.22
2023-04-26T02:28:30.177Z,99446.69
2023-04-26T02:29:43.651Z,99447.53
2023-04-26T02:30:46.964Z,99453.34
2023-04-26T02:31:49.288Z,99439.50
2023-04-26T02:32:56.303Z,99440.31
2023-04-26T02:33:58.622Z,99448.06
2023-04-26T02:35:01.473Z,99447.44
2023-04-26T02:36:08.277Z,99446.66
2023-04-26T02:37:10.914Z,99451.09
2023-04-26T02:38:13.749Z,99447.59
2023-04-26T02:39:16.927Z,99448.59
2023-04-26T02:40:19.808Z,99451.16
2023-04-26T02:41:23.555Z,99453.09
2023-04-26T02:42:26.079Z,99447.00
2023-04-26T02:43:28.698Z,99447.78
2023-04-26T02:44:31.117Z,99448.63
2023-04-26T02:45:33.812Z,99454.44
2023-04-26T02:46:36.248Z,99448.13
2023-04-26T02:47:38.725Z,99451.38
2023-04-26T02:48:41.148Z,99444.16
2023-04-26T02:49:43.340Z,99451.06
2023-04-26T02:50:47.262Z,99451.91
2023-04-26T02:51:51.832Z,99438.19
2023-04-26T02:52:54.081Z,99440.22
2023-04-26T02:53:56.399Z,99450.19
2023-04-26T02:54:58.574Z,99446.91
2023-04-26T02:56:01.517Z,99446.91
2023-04-26T02:57:04.492Z,99451.41
2023-04-26T02:58:06.679Z,99447.91
2023-04-26T02:59:09.171Z,99451.22
2023-04-26T03:00:13.838Z,99446.84
2023-04-26T03:01:16.311Z,99440.81
2023-04-26T03:02:18.687Z,99446.28
2023-04-26T03:03:23.098Z,99442.22
2023-04-26T03:04:25.740Z,99446.63
2023-04-26T03:05:28.293Z,99449.28
2023-04-26T03:06:30.491Z,99451.84
2023-04-26T03:07:33.013Z,99452.97
2023-04-26T03:08:36.612Z,99451.03
2023-04-26T03:09:38.942Z,99444.91
2023-04-26T03:10:41.197Z,99458.81
2023-04-26T03:11:43.791Z,99452.06
2023-04-26T03:12:46.207Z,99450.19
2023-04-26T03:13:48.478Z,99446.72
2023-04-26T03:14:50.679Z,99446.03
2023-04-26T03:15:53.832Z,99445.31
2023-04-26T03:16:57.283Z,99455.66
2023-04-26T03:18:00.855Z,99446.91
2023-04-26T03:19:03.328Z,99451.97
2023-04-26T03:20:08.928Z,99447.47
2023-04-26T03:21:11.979Z,99448.16
2023-04-26T03:22:16.152Z,99450.75
2023-04-26T03:23:18.592Z,99452.66
2023-04-26T03:24:20.746Z,99454.59
2023-04-26T03:25:23.254Z,99455.69
2023-04-26T03:26:26.025Z,99451.38
2023-04-26T03:27:28.325Z,99444.28
2023-04-26T03:28:31.218Z,99440.84
2023-04-26T03:29:33.446Z,99442.38
2023-04-26T03:30:36.060Z,99444.22
2023-04-26T03:31:38.716Z,99448.59
2023-04-26T03:32:41.213Z,99443.44
2023-04-26T03:33:43.381Z,99445.09
2023-04-26T03:34:47.656Z,99451.31
2023-04-26T03:35:51.452Z,99446.94
2023-04-26T03:36:53.662Z,99452.03
2023-04-26T03:37:58.489Z,99444.31
2023-04-26T03:39:02.248Z,99452.38
2023-04-26T03:40:08.292Z,99449.84
2023-04-26T03:41:10.761Z,99453.16
2023-04-26T03:42:12.987Z,99449.53
2023-04-26T03:43:15.311Z,99454.50
2023-04-26T03:44:17.526Z,99448.06
2023-04-26T03:45:20.609Z,99445.75
2023-04-26T03:46:22.979Z,99456.19
2023-04-26T03:47:25.401Z,99455.34
2023-04-26T03:48:27.710Z,99451.66
2023-04-26T03:49:29.900Z,99453.16
2023-04-26T03:50:32.565Z,99454.22
2023-04-26T03:51:35.877Z,99458.78
2023-04-26T03:52:38.218Z,99451.09
2023-04-26T03:53:41.682Z,99452.09
2023-04-26T03:54:44.433Z,99453.84
2023-04-26T03:55:47.527Z,99452.91
2023-04-26T03:56:50.446Z,99452.09
2023-04-26T03:57:53.877Z,99448.63
2023-04-26T03:58:57.270Z,99446.06
2023-04-26T04:00:01.128Z,99439.13
2023-04-26T04:01:04.820Z,99446.47
2023-04-26T04:02:07.164Z,99451.72
2023-04-26T04:03:10.245Z,99452.50
2023-04-26T04:04:12.863Z,99441.28
2023-04-26T04:05:15.838Z,99443.69
2023-04-26T04:06:18.241Z,99443.56
2023-04-26T04:07:21.644Z,99447.06
2023-04-26T04:08:23.919Z,99446.22
2023-04-26T04:09:26.431Z,99443.78
2023-04-26T04:10:29.597Z,99434.44
2023-04-26T04:11:32.945Z,99449.31
2023-04-26T04:12:35.117Z,99434.50
2023-04-26T04:13:37.582Z,99437.84
2023-04-26T04:14:40.122Z,99441.16
2023-04-26T04:15:42.388Z,99436.94
2023-04-26T04:16:44.650Z,99446.56
2023-04-26T04:17:47.498Z,99439.88
2023-04-26T04:18:50.231Z,99445.22
2023-04-26T04:19:52.771Z,99440.19
2023-04-26T04:20:54.955Z,99451.53
2023-04-26T04:21:57.695Z,99445.47
2023-04-26T04:23:02.122Z,99456.75
2023-04-26T04:24:05.698Z,99452.41
2023-04-26T04:25:10.533Z,99443.81
2023-04-26T04:26:13.251Z,99455.09
2023-04-26T04:27:16.341Z,99454.41
2023-04-26T04:28:20.335Z,99452.66
2023-04-26T04:29:22.719Z,99453.53
2023-04-26T04:30:26.218Z,99446.66
2023-04-26T04:31:28.562Z,99455.22
2023-04-26T04:32:32.889Z,99453.50
2023-04-26T04:33:35.696Z,99460.38
2023-04-26T04:34:38.084Z,99456.84
2023-04-26T04:35:43.340Z,99460.28
2023-04-26T04:36:45.591Z,99460.31
2023-04-26T04:37:49.942Z,99453.34
2023-04-26T04:38:53.679Z,99465.34
2023-04-26T04:39:56.651Z,99467.00
2023-04-26T04:40:59.383Z,99457.34
2023-04-26T04:42:01.568Z,99466.00
2023-04-26T04:43:04.385Z,99465.28
2023-04-26T04:44:07.690Z,99467.94
2023-04-26T04:45:10.617Z,99462.66
2023-04-26T04:46:14.754Z,99462.03
2023-04-26T04:47:17.698Z,99462.13
2023-04-26T04:48:21.288Z,99471.56
2023-04-26T04:49:24.703Z,99467.31
2023-04-26T04:50:27.065Z,99455.28
2023-04-26T04:51:30.945Z,99467.50
2023-04-26T04:52:33.273Z,99471.84
2023-04-26T04:53:35.431Z,99466.81
2023-04-26T04:54:37.782Z,99477.19
2023-04-26T04:55:40.064Z,99476.41
2023-04-26T04:56:44.419Z,99474.72
2023-04-26T04:57:50.946Z,99474.75
2023-04-26T04:58:54.147Z,99480.72
2023-04-26T04:59:58.432Z,99474.63
2023-04-26T05:01:02.812Z,99471.09
2023-04-26T05:02:07.013Z,99470.31
2023-04-26T05:03:10.040Z,99478.16
2023-04-26T05:04:13.033Z,99476.38
2023-04-26T05:05:15.596Z,99471.09
2023-04-26T05:06:17.853Z,99476.28
2023-04-26T05:07:20.338Z,99475.22
2023-04-26T05:08:26.939Z,99474.50
2023-04-26T05:09:30.190Z,99480.59
2023-04-26T05:10:32.554Z,99484.25
2023-04-26T05:11:35.012Z,99479.03
2023-04-26T05:12:40.194Z,99476.53
2023-04-26T05:13:42.378Z,99475.41
2023-04-26T05:14:44.566Z,99485.94
2023-04-26T05:15:46.738Z,99480.81
2023-04-26T05:16:49.099Z,99484.25
2023-04-26T05:17:52.704Z,99486.81
2023-04-26T05:18:57.794Z,99478.09
2023-04-26T05:20:00.592Z,99483.13
2023-04-26T05:21:02.910Z,99481.28
2023-04-26T05:22:05.742Z,99483.69
2023-04-26T05:23:08.279Z,99481.84
2023-04-26T05:24:10.777Z,99481.59
2023-04-26T05:25:13.901Z,99484.16
2023-04-26T05:26:17.186Z,99489.78
2023-04-26T05:27:38.138Z,99487.28
2023-04-26T05:29:03.714Z,99487.75
2023-04-26T05:30:18.600Z,99485.00
2023-04-26T05:31:24.894Z,99490.13
2023-04-26T05:32:41.618Z,99488.66
2023-04-26T05:34:09.149Z,99491.28
2023-04-26T05:35:13.279Z,99488.03
2023-04-26T05:36:15.602Z,99492.91
2023-04-26T05:37:17.763Z,99491.44
2023-04-26T05:38:21.841Z,99482.69
2023-04-26T05:39:24.069Z,99499.13
2023-04-26T05:40:27.018Z,99492.00
2023-04-26T05:41:29.320Z,99490.03
2023-04-26T05:42:31.518Z,99495.72
2023-04-26T05:43:33.876Z,99493.97
2023-04-26T05:44:36.342Z,99494.09
2023-04-26T05:45:39.068Z,99485.19
2023-04-26T05:46:41.373Z,99489.63
2023-04-26T05:47:47.437Z,99499.66
2023-04-26T05:48:49.728Z,99502.25
2023-04-26T05:49:51.982Z,99499.84
2023-04-26T05:50:54.377Z,99501.28
2023-04-26T05:51:58.753Z,99496.00
2023-04-26T05:53:00.919Z,99490.09
2023-04-26T05:54:04.924Z,99493.72
2023-04-26T05:55:08.875Z,99500.91
2023-04-26T05:56:11.634Z,99499.75
2023-04-26T05:57:15.123Z,99499.81
2023-04-26T05:58:17.521Z,99503.00
2023-04-26T05:59:21.081Z,99495.69
2023-04-26T06:00:23.562Z,99500.06
2023-04-26T06:01:27.706Z,99502.56
2023-04-26T06:02:30.542Z,99498.91
2023-04-26T06:03:33.149Z,99507.50
2023-04-26T06:04:35.701Z,99501.50
2023-04-26T06:05:42.502Z,99507.75
2023-04-26T06:06:44.774Z,99503.38
2023-04-26T06:07:47.095Z,99511.28
2023-04-26T06:08:49.278Z,99502.03
2023-04-26T06:09:51.752Z,99504.41
2023-04-26T06:10:54.545Z,99510.44
2023-04-26T06:11:57.013Z,99504.41
2023-04-26T06:12:59.578Z,99511.28
2023-04-26T06:14:04.624Z,99504.53
2023-04-26T06:15:07.239Z,99506.63
2023-04-26T06:16:11.194Z,99520.63
2023-04-26T06:17:14.149Z,99511.16
2023-04-26T06:18:16.551Z,99512.16
2023-04-26T06:19:18.847Z,99511.50
2023-04-26T06:20:21.281Z,99515.19
2023-04-26T06:21:23.656Z,99510.53
2023-04-26T06:22:27.246Z,99503.22
2023-04-26T06:23:29.611Z,99521.13
2023-04-26T06:24:31.860Z,99517.00
2023-04-26T06:25:34.298Z,99517.19
2023-04-26T06:26:36.545Z,99520.81
2023-04-26T06:27:39.835Z,99521.44
2023-04-26T06:28:42.413Z,99518.25
2023-04-26T06:29:45.146Z,99529.78
2023-04-26T06:30:47.594Z,99521.94
2023-04-26T06:31:50.213Z,99533.81
2023-04-26T06:32:55.235Z,99548.47
2023-04-26T06:33:57.822Z,99542.41
2023-04-26T06:35:01.252Z,99535.38
2023-04-26T06:36:03.659Z,99544.88
2023-04-26T06:37:06.261Z,99538.69
2023-04-26T06:38:09.133Z,99542.97
2023-04-26T06:39:12.108Z,99544.19
2023-04-26T06:40:15.858Z,99541.78
2023-04-26T06:41:18.494Z,99546.56
2023-04-26T06:42:23.745Z,99548.72
2023-04-26T06:43:55.789Z,99549.16
2023-04-26T06:45:05.603Z,99547.41
2023-04-26T06:46:10.790Z,99545.72
2023-04-26T06:47:17.182Z,99554.53
2023-04-26T06:48:19.360Z,99562.81
2023-04-26T06:49:21.570Z,99556.53
2023-04-26T06:50:23.686Z,99556.78
2023-04-26T06:51:25.823Z,99556.59
2023-04-26T06:52:29.684Z,99551.63
2023-04-26T06:53:31.880Z,99555.84
2023-04-26T06:54:37.751Z,99556.06
2023-04-26T06:55:42.419Z,99548.69
2023-04-26T06:56:44.833Z,99554.59
2023-04-26T06:57:47.275Z,99553.25
2023-04-26T06:59:03.788Z,99550.41
2023-04-26T07:00:06.615Z,99547.44
2023-04-26T07:01:09.903Z,99543.50
2023-04-26T07:02:13.300Z,99541.94
2023-04-26T07:03:16.996Z,99548.78
2023-04-26T07:04:20.740Z,99551.13
2023-04-26T07:05:23.482Z,99548.34
2023-04-26T07:06:26.292Z,99545.84
2023-04-26T07:07:28.482Z,99548.84
2023-04-26T07:08:31.291Z,99545.13
2023-04-26T07:09:33.596Z,99547.81
2023-04-26T07:10:35.882Z,99534.91
2023-04-26T07:11:38.214Z,99534.16
2023-04-26T07:12:40.408Z,99535.03
2023-04-26T07:13:42.632Z,99538.53
2023-04-26T07:14:44.869Z,99541.16
2023-04-26T07:15:47.115Z,99527.56
2023-04-26T07:16:49.339Z,99530.41
2023-04-26T07:17:51.745Z,99539.38
2023-04-26T07:18:54.114Z,99533.03
2023-04-26T07:19:56.371Z,99539.72
2023-04-26T07:20:58.687Z,99540.34
2023-04-26T07:22:01.495Z,99529.91
2023-04-26T07:23:03.805Z,99534.53
2023-04-26T07:24:06.657Z,99524.13
2023-04-26T07:25:08.954Z,99523.06
2023-04-26T07:26:11.739Z,99528.84
2023-04-26T07:27:13.889Z,99532.94
2023-04-26T07:28:16.136Z,99528.75
2023-04-26T07:29:19.014Z,99528.31
2023-04-26T07:30:21.260Z,99528.88
2023-04-26T07:31:23.421Z,99529.34
2023-04-26T07:32:25.749Z,99522.06
2023-04-26T07:33:27.973Z,99534.72
2023-04-26T07:34:30.422Z,99531.28
2023-04-26T07:35:35.163Z,99532.97
2023-04-26T07:36:37.550Z,99527.44
2023-04-26T07:37:39.731Z,99527.16
2023-04-26T07:38:42.305Z,99521.19
2023-04-26T07:39:44.450Z,99516.88
2023-04-26T07:40:46.603Z,99526.50
2023-04-26T07:41:48.836Z,99519.09
2023-04-26T07:42:50.993Z,99521.19
2023-04-26T07:43:53.418Z,99532.69
2023-04-26T07:44:55.776Z,99516.22
2023-04-26T07:46:02.105Z,99532.41
2023-04-26T07:47:04.645Z,99532.59
2023-04-26T07:48:07.325Z,99534.53
2023-04-26T07:49:09.673Z,99534.06
2023-04-26T07:50:12.295Z,99536.84
2023-04-26T07:51:14.586Z,99538.88
2023-04-26T07:52:16.756Z,99528.16
2023-04-26T07:53:19.072Z,99533.81
2023-04-26T07:54:21.272Z,99537.69
2023-04-26T07:55:23.622Z,99542.06
2023-04-26T07:56:25.820Z,99530.66
2023-04-26T07:57:28.282Z,99542.16
2023-04-26T07:58:32.881Z,99538.22
2023-04-26T07:59:35.073Z,99536.00
2023-04-26T08:00:38.642Z,99543.41
2023-04-26T08:01:41.312Z,99540.13
2023-04-26T08:02:45.499Z,99551.03
2023-04-26T08:03:49.092Z,99542.91
2023-04-26T08:04:55.667Z,99537.47
2023-04-26T08:05:59.163Z,99546.03
2023-04-26T08:07:02.038Z,99539.53
2023-04-26T08:08:04.405Z,99556.09
2023-04-26T08:09:06.590Z,99545.81
2023-04-26T08:10:09.284Z,99544.19
2023-04-26T08:11:11.787Z,99545.09
2023-04-26T08:12:14.052Z,99543.78
2023-04-26T08:13:16.761Z,99546.41
2023-04-26T08:14:18.922Z,99549.44
2023-04-26T08:15:21.239Z,99548.50
2023-04-26T08:16:23.477Z,99537.81
2023-04-26T08:17:25.775Z,99544.53
2023-04-26T08:18:27.958Z,99539.63
2023-04-26T08:19:32.674Z,99534.03
2023-04-26T08:20:34.903Z,99532.09
2023-04-26T08:21:37.610Z,99540.69
2023-04-26T08:22:39.822Z,99534.00
2023-04-26T08:23:42.109Z,99537.47
2023-04-26T08:24:49.781Z,99536.03
2023-04-26T08:25:52.093Z,99544.16
2023-04-26T08:26:55.294Z,99545.44
2023-04-26T08:27:57.831Z,99543.84
2023-04-26T08:28:59.961Z,99547.59
2023-04-26T08:30:02.374Z,99540.84
2023-04-26T08:31:05.920Z,99531.91
2023-04-26T08:32:08.106Z,99538.09
2023-04-26T08:33:10.367Z,99535.94
2023-04-26T08:34:13.540Z,99532.31
2023-04-26T08:35:15.704Z,99536.78
2023-04-26T08:36:17.906Z,99535.38
2023-04-26T08:37:20.079Z,99538.75
2023-04-26T08:38:22.736Z,99538.41
2023-04-26T08:39:25.197Z,99535.44
2023-04-26T08:40:27.379Z,99538.47
2023-04-26T08:41:35.330Z,99537.47
2023-04-26T08:42:44.316Z,99528.69
2023-04-26T08:43:46.616Z,99539.84
2023-04-26T08:44:48.969Z,99537.31
2023-04-26T08:45:51.631Z,99529.19
2023-04-26T08:47:19.315Z,99537.19
2023-04-26T08:48:21.760Z,99537.34
2023-04-26T08:49:38.182Z,99542.94
2023-04-26T08:50:44.178Z,99541.41
2023-04-26T08:51:47.414Z,99540.00
2023-04-26T08:52:51.696Z,99538.31
2023-04-26T08:53:56.813Z,99537.78
2023-04-26T08:55:00.288Z,99545.69
2023-04-26T08:56:04.104Z,99533.47
2023-04-26T08:57:07.522Z,99522.38
2023-04-26T08:58:11.664Z,99520.13
2023-04-26T08:59:15.109Z,99533.22
2023-04-26T09:00:18.640Z,99532.84
2023-04-26T09:01:21.659Z,99518.66
2023-04-26T09:02:25.094Z,99523.00
2023-04-26T09:03:28.079Z,99523.63
2023-04-26T09:04:31.570Z,99524.78
2023-04-26T09:05:34.437Z,99518.34
2023-04-26T09:06:37.318Z,99529.66
2023-04-26T09:07:44.665Z,99528.13
2023-04-26T09:08:47.407Z,99523.00
2023-04-26T09:09:53.078Z,99514.72
2023-04-26T09:10:55.910Z,99521.81
2023-04-26T09:12:00.776Z,99517.72
2023-04-26T09:13:03.084Z,99515.53
2023-04-26T09:14:05.233Z,99509.03
2023-04-26T09:15:08.182Z,99512.16
2023-04-26T09:16:10.700Z,99515.94
2023-04-26T09:17:32.650Z,99523.91
2023-04-26T09:18:34.988Z,99511.47
2023-04-26T09:19:42.433Z,99516.00
2023-04-26T09:20:45.771Z,99510.03
2023-04-26T09:21:48.039Z,99519.31
2023-04-26T09:22:52.181Z,99511.75
2023-04-26T09:23:58.804Z,99515.44
2023-04-26T09:25:02.530Z,99514.91
2023-04-26T09:26:20.974Z,99525.78
2023-04-26T09:27:32.343Z,99521.00
2023-04-26T09:28:34.454Z,99509.53
2023-04-26T09:29:36.665Z,99519.78
2023-04-26T09:30:39.869Z,99519.81
2023-04-26T09:31:49.607Z,99513.06
2023-04-26T09:32:59.322Z,99510.28
2023-04-26T09:34:01.612Z,99510.78
2023-04-26T09:35:04.497Z,99514.13
2023-04-26T09:36:13.329Z,99508.31
2023-04-26T09:37:15.559Z,99512.56
2023-04-26T09:38:18.592Z,99506.78
2023-04-26T09:39:34.198Z,99507.56
2023-04-26T09:40:37.246Z,99502.00
2023-04-26T09:41:45.666Z,99510.72
2023-04-26T09:42:57.916Z,99509.50
2023-04-26T09:44:00.269Z,99510.97
2023-04-26T09:45:08.679Z,99498.50
2023-04-26T09:46:10.897Z,99507.34
2023-04-26T09:47:13.161Z,99505.16
2023-04-26T09:48:22.414Z,99504.34
2023-04-26T09:49:27.395Z,99493.75
2023-04-26T09:50:31.462Z,99503.25
2023-04-26T09:51:33.636Z,99507.66
2023-04-26T09:52:44.676Z,99506.63
2023-04-26T09:53:49.878Z,99500.53
2023-04-26T09:54:53.883Z,99499.41
2023-04-26T09:55:56.892Z,99500.69
2023-04-26T09:57:00.362Z,99494.97
2023-04-26T09:58:10.480Z,99502.78
2023-04-26T09:59:12.681Z,99491.72
2023-04-26T10:00:15.253Z,99492.41
2023-04-26T10:01:19.549Z,99495.69
2023-04-26T10:02:23.078Z,99501.44
2023-04-26T10:03:26.769Z,99499.44
2023-04-26T10:04:29.186Z,99497.84
2023-04-26T10:05:34.005Z,99499.84
2023-04-26T10:06:36.429Z,99501.63
2023-04-26T10:07:41.260Z,99496.94
2023-04-26T10:08:44.185Z,99503.75
2023-04-26T10:09:46.905Z,99494.25
2023-04-26T10:10:49.618Z,99499.44
2023-04-26T10:11:51.949Z,99495.72
2023-04-26T10:12:54.180Z,99498.59
2023-04-26T10:13:56.476Z,99490.75
2023-04-26T10:14:58.687Z,99496.41
2023-04-26T10:16:02.089Z,99493.09
2023-04-26T10:17:05.737Z,99493.41
2023-04-26T10:18:08.765Z,99492.75
2023-04-26T10:19:12.011Z,99495.22
2023-04-26T10:20:18.285Z,99491.88
2023-04-26T10:21:31.229Z,99479.72
2023-04-26T10:22:39.911Z,99480.50
2023-04-26T10:23:42.229Z,99474.38
2023-04-26T10:24:44.962Z,99478.69
2023-04-26T10:25:47.927Z,99475.28
2023-04-26T10:26:56.625Z,99472.19
2023-04-26T10:27:58.902Z,99477.16
2023-04-26T10:29:02.986Z,99461.56
2023-04-26T10:30:07.496Z,99463.91
2023-04-26T10:31:10.438Z,99465.59
2023-04-26T10:32:17.525Z,99471.31
2023-04-26T10:33:20.532Z,99462.38
2023-04-26T10:34:22.944Z,99467.53
2023-04-26T10:35:30.310Z,99472.41
2023-04-26T10:36:33.518Z,99475.00
2023-04-26T10:37:35.754Z,99483.63
2023-04-26T10:38:42.947Z,99474.78
2023-04-26T10:39:46.999Z,99484.13
2023-04-26T10:40:50.398Z,99476.63
2023-04-26T10:42:25.518Z,99474.47
2023-04-26T10:43:28.811Z,99474.81
2023-04-26T10:44:39.902Z,99466.06
2023-04-26T10:45:49.227Z,99474.19
2023-04-26T10:46:52.706Z,99459.09
2023-04-26T10:48:13.511Z,99471.72
2023-04-26T10:49:17.818Z,99469.88
2023-04-26T10:50:20.014Z,99475.34
2023-04-26T10:51:22.222Z,99471.31
2023-04-26T10:52:24.390Z,99473.38
2023-04-26T10:53:30.848Z,99472.59
2023-04-26T10:54:50.701Z,99454.84
2023-04-26T10:55:53.240Z,99458.41
2023-04-26T10:56:55.564Z,99461.38
2023-04-26T10:57:57.763Z,99460.13
2023-04-26T10:59:36.147Z,99459.59
2023-04-26T11:01:01.483Z,99461.34
2023-04-26T11:02:04.123Z,99456.03
2023-04-26T11:03:10.276Z,99458.19
2023-04-26T11:04:13.411Z,99441.34
2023-04-26T11:05:35.067Z,99453.72
2023-04-26T11:06:51.002Z,99448.63
2023-04-26T11:08:06.373Z,99443.97
2023-04-26T11:09:39.435Z,99447.41
2023-04-26T11:10:42.580Z,99445.31
2023-04-26T11:11:53.669Z,99446.50
2023-04-26T11:13:01.580Z,99450.78
2023-04-26T11:14:03.916Z,99442.47
2023-04-26T11:15:07.171Z,99449.09
2023-04-26T11:16:11.606Z,99442.78
2023-04-26T11:17:13.815Z,99440.06
2023-04-26T11:18:18.993Z,99436.84
2023-04-26T11:19:21.389Z,99432.03
2023-04-26T11:20:28.203Z,99430.50
2023-04-26T11:21:32.613Z,99432.81
2023-04-26T11:22:39.195Z,99429.59
2023-04-26T11:23:41.533Z,99423.06
2023-04-26T11:24:43.732Z,99419.25
2023-04-26T11:25:45.885Z,99431.63
2023-04-26T11:26:54.176Z,99417.47
2023-04-26T11:28:03.159Z,99415.81
2023-04-26T11:29:07.914Z,99416.41
2023-04-26T11:30:10.837Z,99406.91
2023-04-26T11:31:14.399Z,99405.03
2023-04-26T11:32:16.616Z,99407.63
2023-04-26T11:33:22.844Z,99408.22
2023-04-26T11:34:35.319Z,99403.97
2023-04-26T11:35:38.911Z,99405.91
2023-04-26T11:36:41.181Z,99401.53
2023-04-26T11:37:45.574Z,99402.56
2023-04-26T11:38:47.839Z,99413.94
2023-04-26T11:39:51.273Z,99408.41
2023-04-26T11:40:58.269Z,99407.78
2023-04-26T11:42:07.272Z,99403.53
2023-04-26T11:43:10.806Z,99402.22
2023-04-26T11:44:12.997Z,99402.34
2023-04-26T11:45:16.507Z,99397.25
2023-04-26T11:46:21.441Z,99399.59
2023-04-26T11:47:24.019Z,99391.69
2023-04-26T11:48:26.381Z,99392.47
2023-04-26T11:49:28.832Z,99391.69
2023-04-26T11:50:36.658Z,99383.59
2023-04-26T11:51:38.890Z,99384.75
2023-04-26T11:52:41.630Z,99390.13
2023-04-26T11:53:44.455Z,99383.00
2023-04-26T11:54:46.674Z,99388.63
2023-04-26T11:55:48.817Z,99392.03
2023-04-26T11:56:51.104Z,99398.94
2023-04-26T11:57:53.633Z,99387.22
2023-04-26T11:58:56.767Z,99393.22
2023-04-26T12:00:11.326Z,99400.56
2023-04-26T12:01:20.803Z,99399.91
2023-04-26T12:02:24.238Z,99411.31
2023-04-26T12:03:31.179Z,99409.06
2023-04-26T12:04:34.220Z,99403.81
2023-04-26T12:05:36.860Z,99407.56
2023-04-26T12:06:44.373Z,99401.25
2023-04-26T12:07:50.560Z,99404.09
2023-04-26T12:08:52.943Z,99412.69
2023-04-26T12:09:56.790Z,99407.03
2023-04-26T12:11:01.893Z,99410.69
2023-04-26T12:12:08.264Z,99402.78
2023-04-26T12:13:13.722Z,99409.56
2023-04-26T12:14:16.382Z,99406.09
2023-04-26T12:15:19.485Z,99398.50
2023-04-26T12:16:26.897Z,99399.28
2023-04-26T12:17:29.440Z,99395.84
2023-04-26T12:18:32.577Z,99399.41
2023-04-26T12:19:38.999Z,99398.66
2023-04-26T12:20:42.672Z,99390.16
2023-04-26T12:21:44.857Z,99392.47
2023-04-26T12:22:58.868Z,99387.03
2023-04-26T12:24:01.506Z,99397.13
2023-04-26T12:25:07.208Z,99393.75
2023-04-26T12:26:12.077Z,99394.00
2023-04-26T12:27:21.899Z,99379.78
2023-04-26T12:28:24.662Z,99386.75
2023-04-26T12:29:28.695Z,99378.22
2023-04-26T12:30:31.305Z,99388.63
2023-04-26T12:31:39.534Z,99392.22
2023-04-26T12:32:42.111Z,99384.47
2023-04-26T12:33:44.362Z,99390.22